Time,TemperatureF,DewpointF,PressureIn,WindDirection,WindDirectionDegrees,WindSpeedMPH,WindSpeedGustMPH,Humidity,HourlyPrecipIn,Conditions,Clouds,dailyrainin,SolarRadiationWatts/m^2,SoftwareType,DateUTC
2013-06-09 00:01:00,60.0,57.0,-100.00,NE,41,2.0,4.0,90,0.00,,,0.01,0.000000,,2013-06-09 04:01:00,
2013-06-09 00:23:00,60.0,57.0,-100.00,NE,41,2.0,4.0,90,0.00,,,0.01,0.000000,,2013-06-09 04:23:00,
2013-06-09 00:33:00,60.0,57.0,-100.00,NE,41,2.0,4.0,90,0.00,,,0.01,0.000000,,2013-06-09 04:33:00,
2013-06-09 00:43:00,60.0,57.0,-100.00,NE,41,2.0,4.0,90,0.00,,,0.01,0.000000,,2013-06-09 04:43:00,
2013-06-09 00:53:00,60.0,57.0,-100.00,NE,41,2.0,4.0,90,0.00,,,0.01,0.000000,,2013-06-09 04:53:00,
2013-06-09 01:01:00,58.0,57.0,-100.00,SE,144,1.0,3.0,96,0.00,,,0.01,0.000000,,2013-06-09 05:01:00,
2013-06-09 01:22:00,58.0,57.0,-100.00,SE,144,1.0,3.0,96,0.00,,,0.01,0.000000,,2013-06-09 05:22:00,
2013-06-09 01:32:00,58.0,57.0,-100.00,SE,144,1.0,3.0,96,0.00,,,0.01,0.000000,,2013-06-09 05:32:00,
2013-06-09 01:42:00,58.0,57.0,-100.00,SE,144,1.0,3.0,96,0.00,,,0.01,0.000000,,2013-06-09 05:42:00,
2013-06-09 01:52:00,58.0,57.0,-100.00,SE,144,1.0,3.0,96,0.00,,,0.01,0.000000,,2013-06-09 05:52:00,
2013-06-09 02:01:00,57.0,56.0,-100.00,NE,39,3.0,3.0,97,0.00,,,0.01,0.000000,,2013-06-09 06:01:00,
2013-06-09 02:22:00,57.0,56.0,-100.00,NE,39,3.0,3.0,97,0.00,,,0.01,0.000000,,2013-06-09 06:22:00,
2013-06-09 02:32:00,57.0,56.0,-100.00,NE,39,3.0,3.0,97,0.00,,,0.01,0.000000,,2013-06-09 06:32:00,
2013-06-09 02:42:00,57.0,56.0,-100.00,NE,39,3.0,3.0,97,0.00,,,0.01,0.000000,,2013-06-09 06:42:00,
2013-06-09 02:52:00,57.0,56.0,-100.00,NE,39,3.0,3.0,97,0.00,,,0.01,0.000000,,2013-06-09 06:52:00,
2013-06-09 03:01:00,56.0,56.0,-100.00,SSW,200,3.0,4.0,100,0.00,,,-99.99,0.000000,,2013-06-09 07:01:00,
2013-06-09 03:22:00,56.0,56.0,-100.00,SSW,200,3.0,4.0,100,0.00,,,-99.99,0.000000,,2013-06-09 07:22:00,
2013-06-09 03:32:00,56.0,56.0,-100.00,SSW,200,3.0,4.0,100,0.00,,,-99.99,0.000000,,2013-06-09 07:32:00,
2013-06-09 03:42:00,56.0,56.0,-100.00,SSW,200,3.0,4.0,100,0.00,,,-99.99,0.000000,,2013-06-09 07:42:00,
2013-06-09 03:53:00,56.0,56.0,-100.00,SSW,200,3.0,4.0,100,0.00,,,-99.99,0.000000,,2013-06-09 07:53:00,
2013-06-09 04:01:00,56.0,56.0,-100.00,ENE,57,2.0,5.0,100,0.00,,,0.01,0.000000,,2013-06-09 08:01:00,
2013-06-09 04:22:00,56.0,56.0,-100.00,ENE,57,2.0,5.0,100,0.00,,,0.01,0.000000,,2013-06-09 08:22:00,
2013-06-09 04:32:00,56.0,56.0,-100.00,ENE,57,2.0,5.0,100,0.00,,,0.01,0.000000,,2013-06-09 08:32:00,
2013-06-09 04:42:00,56.0,56.0,-100.00,ENE,57,2.0,5.0,100,0.00,,,0.01,0.000000,,2013-06-09 08:42:00,
2013-06-09 04:53:00,56.0,56.0,-100.00,ENE,57,2.0,5.0,100,0.00,,,0.01,0.000000,,2013-06-09 08:53:00,
2013-06-09 05:01:00,57.0,56.0,-100.00,NE,46,2.0,4.0,96,0.00,,,0.01,0.000000,,2013-06-09 09:01:00,
2013-06-09 05:22:00,57.0,56.0,-100.00,NE,46,2.0,4.0,96,0.00,,,0.01,0.000000,,2013-06-09 09:22:00,
2013-06-09 05:33:00,57.0,56.0,-100.00,NE,46,2.0,4.0,96,0.00,,,0.01,0.000000,,2013-06-09 09:33:00,
2013-06-09 05:43:00,57.0,56.0,-100.00,NE,46,2.0,4.0,96,0.00,,,0.01,0.000000,,2013-06-09 09:43:00,
2013-06-09 05:53:00,57.0,56.0,-100.00,NE,46,2.0,4.0,96,0.00,,,0.01,0.000000,,2013-06-09 09:53:00,
2013-06-09 06:01:00,57.0,55.0,-100.00,NE,53,2.0,3.0,94,0.00,,,0.01,0.000000,,2013-06-09 10:01:00,
2013-06-09 06:23:00,57.0,55.0,-100.00,NE,53,2.0,3.0,94,0.00,,,0.01,0.000000,,2013-06-09 10:23:00,
2013-06-09 06:32:00,57.0,55.0,-100.00,NE,53,2.0,3.0,94,0.00,,,0.01,0.000000,,2013-06-09 10:32:00,
2013-06-09 06:43:00,57.0,55.0,-100.00,NE,53,2.0,3.0,94,0.00,,,0.01,0.000000,,2013-06-09 10:43:00,
2013-06-09 06:52:00,57.0,55.0,-100.00,NE,53,2.0,3.0,94,0.00,,,0.01,0.000000,,2013-06-09 10:52:00,
2013-06-09 07:01:00,57.0,57.0,-100.00,NE,46,2.0,3.0,100,0.00,,,0.01,10.000000,,2013-06-09 11:01:00,
2013-06-09 07:22:00,57.0,57.0,-100.00,NE,46,2.0,3.0,100,0.00,,,0.01,10.000000,,2013-06-09 11:22:00,
2013-06-09 07:32:00,57.0,57.0,-100.00,NE,46,2.0,3.0,100,0.00,,,0.01,10.000000,,2013-06-09 11:32:00,
2013-06-09 07:42:00,57.0,57.0,-100.00,NE,46,2.0,3.0,100,0.00,,,0.01,10.000000,,2013-06-09 11:42:00,
2013-06-09 07:53:00,57.0,57.0,-100.00,NE,46,2.0,3.0,100,0.00,,,0.01,10.000000,,2013-06-09 11:53:00,
2013-06-09 08:01:00,58.0,57.0,-100.00,NE,45,2.0,5.0,95,0.00,,,0.01,64.000000,,2013-06-09 12:01:00,
2013-06-09 08:22:00,58.0,57.0,-100.00,NE,45,2.0,5.0,95,0.00,,,0.01,64.000000,,2013-06-09 12:22:00,
2013-06-09 08:32:00,58.0,57.0,-100.00,NE,45,2.0,5.0,95,0.00,,,0.01,64.000000,,2013-06-09 12:32:00,
2013-06-09 08:42:00,58.0,57.0,-100.00,NE,45,2.0,5.0,95,0.00,,,0.01,64.000000,,2013-06-09 12:42:00,
2013-06-09 08:53:00,58.0,57.0,-100.00,NE,45,2.0,5.0,95,0.00,,,0.01,64.000000,,2013-06-09 12:53:00,
2013-06-09 09:01:00,63.0,60.0,-100.00,South,174,2.0,4.0,91,0.00,,,0.00,211.000000,,2013-06-09 13:01:00,
2013-06-09 09:23:00,63.0,60.0,-100.00,South,174,2.0,4.0,91,0.00,,,0.00,211.000000,,2013-06-09 13:23:00,
2013-06-09 09:32:00,63.0,60.0,-100.00,South,174,2.0,4.0,91,0.00,,,0.00,211.000000,,2013-06-09 13:32:00,
2013-06-09 09:42:00,63.0,60.0,-100.00,South,174,2.0,4.0,91,0.00,,,0.00,211.000000,,2013-06-09 13:42:00,
2013-06-09 09:52:00,63.0,60.0,-100.00,South,174,2.0,4.0,91,0.00,,,0.00,211.000000,,2013-06-09 13:52:00,
2013-06-09 10:01:00,67.0,62.0,-100.00,SSW,203,3.0,5.0,84,0.00,,,0.00,419.000000,,2013-06-09 14:01:00,
2013-06-09 10:22:00,67.0,62.0,-100.00,SSW,203,3.0,5.0,84,0.00,,,0.00,419.000000,,2013-06-09 14:22:00,
2013-06-09 10:32:00,67.0,62.0,-100.00,SSW,203,3.0,5.0,84,0.00,,,0.00,419.000000,,2013-06-09 14:32:00,
2013-06-09 10:43:00,67.0,62.0,-100.00,SSW,203,3.0,5.0,84,0.00,,,0.00,419.000000,,2013-06-09 14:43:00,
2013-06-09 10:52:00,67.0,62.0,-100.00,SSW,203,3.0,5.0,84,0.00,,,0.00,419.000000,,2013-06-09 14:52:00,
2013-06-09 11:01:00,71.0,63.0,-100.00,SSW,207,4.0,6.0,77,0.00,,,0.00,818.000000,,2013-06-09 15:01:00,
2013-06-09 11:22:00,71.0,63.0,-100.00,SSW,207,4.0,6.0,77,0.00,,,0.00,818.000000,,2013-06-09 15:22:00,
2013-06-09 11:33:00,71.0,63.0,-100.00,SSW,207,4.0,6.0,77,0.00,,,0.00,818.000000,,2013-06-09 15:33:00,
2013-06-09 11:44:00,71.0,63.0,-100.00,SSW,207,4.0,6.0,77,0.00,,,0.00,818.000000,,2013-06-09 15:44:00,
2013-06-09 11:53:00,71.0,63.0,-100.00,SSW,207,4.0,6.0,77,0.00,,,0.00,818.000000,,2013-06-09 15:53:00,
2013-06-09 12:01:00,76.0,62.0,-100.00,SW,222,4.0,10.0,61,0.00,,,0.00,1032.000000,,2013-06-09 16:01:00,
2013-06-09 12:23:00,76.0,62.0,-100.00,SW,222,4.0,10.0,61,0.00,,,0.00,1032.000000,,2013-06-09 16:23:00,
2013-06-09 12:33:00,76.0,62.0,-100.00,SW,222,4.0,10.0,61,0.00,,,0.00,1032.000000,,2013-06-09 16:33:00,
2013-06-09 12:43:00,76.0,62.0,-100.00,SW,222,4.0,10.0,61,0.00,,,0.00,1032.000000,,2013-06-09 16:43:00,
2013-06-09 12:53:00,76.0,62.0,-100.00,SW,222,4.0,10.0,61,0.00,,,0.00,1032.000000,,2013-06-09 16:53:00,
2013-06-09 13:01:00,77.0,58.0,-100.00,SW,231,4.0,10.0,52,0.00,,,0.00,1086.000000,,2013-06-09 17:01:00,
2013-06-09 13:22:00,77.0,58.0,-100.00,SW,231,4.0,10.0,52,0.00,,,0.00,1086.000000,,2013-06-09 17:22:00,
2013-06-09 13:32:00,77.0,58.0,-100.00,SW,231,4.0,10.0,52,0.00,,,0.00,1086.000000,,2013-06-09 17:32:00,
2013-06-09 13:42:00,77.0,58.0,-100.00,SW,231,4.0,10.0,52,0.00,,,0.00,1086.000000,,2013-06-09 17:42:00,
2013-06-09 13:52:00,77.0,58.0,-100.00,SW,231,4.0,10.0,52,0.00,,,0.00,1086.000000,,2013-06-09 17:52:00,
2013-06-09 14:01:00,77.0,55.0,-100.00,WSW,250,4.0,11.0,46,0.00,,,0.00,1035.000000,,2013-06-09 18:01:00,
2013-06-09 14:22:00,77.0,55.0,-100.00,WSW,250,4.0,11.0,46,0.00,,,0.00,1035.000000,,2013-06-09 18:22:00,
2013-06-09 14:33:00,77.0,55.0,-100.00,WSW,250,4.0,11.0,46,0.00,,,0.00,1035.000000,,2013-06-09 18:33:00,
2013-06-09 14:42:00,77.0,55.0,-100.00,WSW,250,4.0,11.0,46,0.00,,,0.00,1035.000000,,2013-06-09 18:42:00,
2013-06-09 14:52:00,77.0,55.0,-100.00,WSW,250,4.0,11.0,46,0.00,,,0.00,1035.000000,,2013-06-09 18:52:00,
2013-06-09 15:01:00,80.0,53.0,-100.00,SW,217,5.0,11.0,39,0.00,,,0.00,829.000000,,2013-06-09 19:01:00,
2013-06-09 15:22:00,80.0,53.0,-100.00,SW,217,5.0,11.0,39,0.00,,,0.00,829.000000,,2013-06-09 19:22:00,
2013-06-09 15:32:00,80.0,53.0,-100.00,SW,217,5.0,11.0,39,0.00,,,0.00,829.000000,,2013-06-09 19:32:00,
2013-06-09 15:43:00,80.0,53.0,-100.00,SW,217,5.0,11.0,39,0.00,,,0.00,829.000000,,2013-06-09 19:43:00,
2013-06-09 15:52:00,80.0,53.0,-100.00,SW,217,5.0,11.0,39,0.00,,,0.00,829.000000,,2013-06-09 19:52:00,
2013-06-09 16:01:00,80.0,55.0,-100.00,SW,215,4.0,10.0,42,0.00,,,0.00,999.000000,,2013-06-09 20:01:00,
2013-06-09 16:22:00,80.0,55.0,-100.00,SW,215,4.0,10.0,42,0.00,,,0.00,999.000000,,2013-06-09 20:22:00,
2013-06-09 16:32:00,80.0,55.0,-100.00,SW,215,4.0,10.0,42,0.00,,,0.00,999.000000,,2013-06-09 20:32:00,
2013-06-09 16:42:00,80.0,55.0,-100.00,SW,215,4.0,10.0,42,0.00,,,0.00,999.000000,,2013-06-09 20:42:00,
2013-06-09 16:52:00,80.0,55.0,-100.00,SW,215,4.0,10.0,42,0.00,,,0.00,999.000000,,2013-06-09 20:52:00,
2013-06-09 17:01:00,80.0,47.0,-100.00,South,191,3.0,10.0,32,0.00,,,0.00,851.000000,,2013-06-09 21:01:00,
2013-06-09 17:22:00,80.0,47.0,-100.00,South,191,3.0,10.0,32,0.00,,,0.00,851.000000,,2013-06-09 21:22:00,
2013-06-09 17:33:00,80.0,47.0,-100.00,South,191,3.0,10.0,32,0.00,,,0.00,851.000000,,2013-06-09 21:33:00,
2013-06-09 17:44:00,80.0,47.0,-100.00,South,191,3.0,10.0,32,0.00,,,0.00,851.000000,,2013-06-09 21:44:00,
2013-06-09 17:53:00,80.0,47.0,-100.00,South,191,3.0,10.0,32,0.00,,,0.00,851.000000,,2013-06-09 21:53:00,
2013-06-09 18:01:00,78.0,53.0,-100.00,South,189,5.0,10.0,42,0.00,,,0.00,621.000000,,2013-06-09 22:01:00,
2013-06-09 18:23:00,78.0,53.0,-100.00,South,189,5.0,10.0,42,0.00,,,0.00,621.000000,,2013-06-09 22:23:00,
2013-06-09 18:33:00,78.0,53.0,-100.00,South,189,5.0,10.0,42,0.00,,,0.00,621.000000,,2013-06-09 22:33:00,
2013-06-09 18:42:00,78.0,53.0,-100.00,South,189,5.0,10.0,42,0.00,,,0.00,621.000000,,2013-06-09 22:42:00,
2013-06-09 18:52:00,78.0,53.0,-100.00,South,189,5.0,10.0,42,0.00,,,0.00,621.000000,,2013-06-09 22:52:00,
2013-06-09 19:01:00,74.0,58.0,-100.00,SSE,168,5.0,12.0,57,0.00,,,0.00,318.000000,,2013-06-09 23:01:00,
2013-06-09 19:22:00,74.0,58.0,-100.00,SSE,168,5.0,12.0,57,0.00,,,0.00,318.000000,,2013-06-09 23:22:00,
2013-06-09 19:32:00,74.0,58.0,-100.00,SSE,168,5.0,12.0,57,0.00,,,0.00,318.000000,,2013-06-09 23:32:00,
2013-06-09 19:43:00,74.0,58.0,-100.00,SSE,168,5.0,12.0,57,0.00,,,0.00,318.000000,,2013-06-09 23:43:00,
2013-06-09 19:52:00,74.0,58.0,-100.00,SSE,168,5.0,12.0,57,0.00,,,0.00,318.000000,,2013-06-09 23:52:00,
2013-06-09 20:01:00,71.0,60.0,-100.00,South,185,6.0,12.0,69,0.00,,,0.00,108.000000,,2013-06-10 00:01:00,
2013-06-09 20:22:00,71.0,60.0,-100.00,South,185,6.0,12.0,69,0.00,,,0.00,108.000000,,2013-06-10 00:22:00,
2013-06-09 20:32:00,71.0,60.0,-100.00,South,185,6.0,12.0,69,0.00,,,0.00,108.000000,,2013-06-10 00:32:00,
2013-06-09 20:42:00,71.0,60.0,-100.00,South,185,6.0,12.0,69,0.00,,,0.00,108.000000,,2013-06-10 00:42:00,
2013-06-09 20:52:00,71.0,60.0,-100.00,South,185,6.0,12.0,69,0.00,,,0.00,108.000000,,2013-06-10 00:52:00,
2013-06-09 21:01:00,69.0,61.0,-100.00,South,187,4.0,12.0,76,0.00,,,0.00,7.000000,,2013-06-10 01:01:00,
2013-06-09 21:22:00,69.0,61.0,-100.00,South,187,4.0,12.0,76,0.00,,,0.00,7.000000,,2013-06-10 01:22:00,
2013-06-09 21:32:00,69.0,61.0,-100.00,South,187,4.0,12.0,76,0.00,,,0.00,7.000000,,2013-06-10 01:32:00,
2013-06-09 21:43:00,69.0,61.0,-100.00,South,187,4.0,12.0,76,0.00,,,0.00,7.000000,,2013-06-10 01:43:00,
2013-06-09 21:52:00,69.0,61.0,-100.00,South,187,4.0,12.0,76,0.00,,,0.00,7.000000,,2013-06-10 01:52:00,
2013-06-09 22:01:00,67.0,64.0,-100.00,South,178,5.0,11.0,91,0.00,,,0.00,0.000000,,2013-06-10 02:01:00,
2013-06-09 22:22:00,67.0,64.0,-100.00,South,178,5.0,11.0,91,0.00,,,0.00,0.000000,,2013-06-10 02:22:00,
2013-06-09 22:32:00,67.0,64.0,-100.00,South,178,5.0,11.0,91,0.00,,,0.00,0.000000,,2013-06-10 02:32:00,
2013-06-09 22:42:00,67.0,64.0,-100.00,South,178,5.0,11.0,91,0.00,,,0.00,0.000000,,2013-06-10 02:42:00,
2013-06-09 22:52:00,67.0,64.0,-100.00,South,178,5.0,11.0,91,0.00,,,0.00,0.000000,,2013-06-10 02:52:00,
2013-06-09 23:01:00,63.0,63.0,-100.00,South,189,7.0,13.0,100,0.10,,,0.10,0.000000,,2013-06-10 03:01:00,
2013-06-09 23:22:00,63.0,63.0,-100.00,South,189,7.0,13.0,100,0.10,,,0.10,0.000000,,2013-06-10 03:22:00,
2013-06-09 23:33:00,63.0,63.0,-100.00,South,189,7.0,13.0,100,0.10,,,0.10,0.000000,,2013-06-10 03:33:00,
2013-06-09 23:43:00,63.0,63.0,-100.00,South,189,7.0,13.0,100,0.10,,,0.10,0.000000,,2013-06-10 03:43:00,
2013-06-09 23:53:00,63.0,63.0,-100.00,South,189,7.0,13.0,100,0.10,,,0.10,0.000000,,2013-06-10 03:53:00,